createdAt,value
2018-03-24T00:01:38.427Z,6.30
2018-03-24T00:04:04.930Z,6.00
2018-03-24T00:06:31.312Z,5.47
2018-03-24T00:08:57.668Z,5.30
2018-03-24T00:11:24.001Z,5.50
2018-03-24T00:13:50.381Z,5.83
2018-03-24T00:16:17.001Z,5.70
2018-03-24T00:18:43.395Z,5.93
2018-03-24T00:21:09.801Z,6.70
2018-03-24T00:23:36.166Z,5.60
2018-03-24T00:26:02.618Z,6.20
2018-03-24T00:28:29.013Z,5.67
2018-03-24T00:30:55.422Z,5.80
2018-03-24T00:33:21.873Z,5.83
2018-03-24T00:35:48.282Z,5.60
2018-03-24T00:38:14.711Z,5.20
2018-03-24T00:40:41.166Z,5.40
2018-03-24T00:43:07.514Z,4.93
2018-03-24T00:45:33.877Z,6.87
2018-03-24T00:48:00.346Z,6.27
2018-03-24T00:50:26.702Z,6.23
2018-03-24T00:52:53.067Z,6.23
2018-03-24T00:55:19.440Z,6.80
2018-03-24T00:57:45.772Z,6.63
2018-03-24T01:00:12.190Z,7.60
2018-03-24T01:02:38.518Z,6.93
2018-03-24T01:05:04.897Z,7.43
2018-03-24T01:07:31.225Z,8.30
2018-03-24T01:09:57.581Z,7.13
2018-03-24T01:12:23.946Z,8.00
2018-03-24T01:14:50.291Z,8.23
2018-03-24T01:17:16.624Z,8.80
2018-03-24T01:19:42.974Z,8.07
2018-03-24T01:22:09.326Z,7.27
2018-03-24T01:24:35.740Z,7.60
2018-03-24T01:27:02.106Z,7.53
2018-03-24T01:29:28.465Z,7.63
2018-03-24T01:31:54.865Z,8.23
2018-03-24T01:34:21.218Z,8.20
2018-03-24T01:36:47.589Z,7.93
2018-03-24T01:39:13.985Z,8.80
2018-03-24T01:41:40.339Z,7.80
2018-03-24T01:44:06.711Z,7.57
2018-03-24T01:46:33.176Z,8.40
2018-03-24T01:48:59.545Z,7.67
2018-03-24T01:51:25.889Z,7.17
2018-03-24T01:53:52.309Z,8.27
2018-03-24T01:56:18.689Z,7.67
2018-03-24T01:58:45.037Z,6.20
2018-03-24T02:01:11.405Z,6.97
2018-03-24T02:03:37.810Z,7.27
2018-03-24T02:06:04.206Z,6.90
2018-03-24T02:08:30.554Z,7.73
2018-03-24T02:10:56.990Z,7.50
2018-03-24T02:13:23.499Z,7.83
2018-03-24T02:15:49.853Z,6.80
2018-03-24T02:18:16.245Z,6.87
2018-03-24T02:20:42.697Z,6.93
2018-03-24T02:23:09.042Z,7.53
2018-03-24T02:25:35.457Z,7.47
2018-03-24T02:28:01.794Z,8.00
2018-03-24T02:30:28.217Z,8.60
2018-03-24T02:32:54.561Z,7.43
2018-03-24T02:35:20.945Z,7.33
2018-03-24T02:37:47.280Z,7.67
2018-03-24T02:40:13.691Z,7.10
2018-03-24T02:42:40.030Z,6.80
2018-03-24T02:45:06.414Z,6.90
2018-03-24T02:47:32.758Z,7.03
2018-03-24T02:49:59.123Z,6.97
2018-03-24T02:52:25.478Z,6.80
2018-03-24T02:54:51.842Z,7.90
2018-03-24T02:57:18.187Z,7.13
2018-03-24T02:59:44.538Z,7.43
2018-03-24T03:02:10.950Z,7.80
2018-03-24T03:04:37.416Z,7.37
2018-03-24T03:07:03.770Z,6.87
2018-03-24T03:09:30.093Z,7.93
2018-03-24T03:11:56.445Z,7.77
2018-03-24T03:14:22.779Z,7.23
2018-03-24T03:16:49.197Z,7.63
2018-03-24T03:19:15.597Z,7.13
2018-03-24T03:21:53.141Z,7.43
2018-03-24T03:24:19.544Z,7.10
2018-03-24T03:26:46.039Z,7.27
2018-03-24T03:29:12.508Z,7.77
2018-03-24T03:31:38.903Z,7.60
2018-03-24T03:34:05.289Z,7.10
2018-03-24T03:36:31.669Z,7.37
2018-03-24T03:38:58.017Z,8.10
2018-03-24T03:41:24.353Z,8.10
2018-03-24T03:43:50.713Z,8.07
2018-03-24T03:46:17.077Z,7.93
2018-03-24T03:48:43.446Z,8.40
2018-03-24T03:51:09.834Z,8.10
2018-03-24T03:53:36.426Z,7.70
2018-03-24T03:56:02.825Z,8.47
2018-03-24T03:58:29.226Z,8.60
2018-03-24T04:00:55.591Z,8.57
2018-03-24T04:03:22.000Z,8.97
2018-03-24T04:05:48.354Z,13.87
2018-03-24T04:08:15.045Z,7.70
2018-03-24T04:10:41.378Z,8.27
2018-03-24T04:13:07.743Z,8.10
2018-03-24T04:15:34.238Z,7.60
2018-03-24T04:18:00.605Z,7.03
2018-03-24T04:20:26.959Z,7.40
2018-03-24T04:22:53.330Z,8.40
2018-03-24T04:25:19.647Z,10.60
2018-03-24T04:27:46.024Z,10.20
2018-03-24T04:30:12.401Z,11.27
2018-03-24T04:32:38.787Z,10.50
2018-03-24T04:35:05.346Z,10.00
2018-03-24T04:37:31.846Z,9.23
2018-03-24T04:39:58.201Z,8.97
2018-03-24T04:42:24.589Z,9.53
2018-03-24T04:44:50.953Z,10.37
2018-03-24T04:47:17.311Z,9.97
2018-03-24T04:49:43.742Z,9.80
2018-03-24T04:52:10.107Z,11.03
2018-03-24T04:54:36.473Z,11.30
2018-03-24T04:57:02.902Z,12.30
2018-03-24T04:59:29.276Z,11.27
2018-03-24T05:01:55.634Z,13.97
2018-03-24T05:04:22.001Z,15.27
2018-03-24T05:06:48.393Z,13.00
2018-03-24T05:09:14.736Z,14.10
2018-03-24T05:11:41.078Z,12.97
2018-03-24T05:14:07.475Z,14.47
2018-03-24T05:16:33.795Z,12.77
2018-03-24T05:19:00.154Z,11.50
2018-03-24T05:21:26.498Z,10.57
2018-03-24T05:23:52.830Z,14.00
2018-03-24T05:26:19.295Z,16.27
2018-03-24T05:28:45.570Z,16.60
2018-03-24T05:31:11.934Z,18.37
2018-03-24T05:33:38.289Z,12.87
2018-03-24T05:36:04.658Z,12.43
2018-03-24T05:38:31.014Z,15.73
2018-03-24T05:40:57.344Z,15.00
2018-03-24T05:43:23.718Z,15.77
2018-03-24T05:45:50.401Z,15.67
2018-03-24T05:48:17.735Z,14.40
2018-03-24T05:50:44.113Z,14.47
2018-03-24T05:53:10.495Z,17.77
2018-03-24T05:55:36.850Z,17.97
2018-03-24T05:58:03.234Z,23.43
2018-03-24T06:00:29.669Z,23.53
2018-03-24T06:02:56.011Z,23.90
2018-03-24T06:05:22.353Z,23.30
2018-03-24T06:07:48.713Z,23.27
2018-03-24T06:10:15.093Z,23.43
2018-03-24T06:12:41.434Z,23.87
2018-03-24T06:15:07.759Z,24.83
2018-03-24T06:17:34.237Z,20.23
2018-03-24T06:20:00.688Z,19.70
2018-03-24T06:22:27.024Z,21.77
2018-03-24T06:24:53.365Z,20.40
2018-03-24T06:27:19.730Z,18.77
2018-03-24T06:29:46.125Z,19.33
2018-03-24T06:32:12.550Z,18.87
2018-03-24T06:34:39.037Z,19.57
2018-03-24T06:37:10.430Z,18.90
2018-03-24T06:39:36.790Z,19.13
2018-03-24T06:42:03.174Z,19.07
2018-03-24T06:44:29.549Z,20.40
2018-03-24T06:46:55.910Z,14.80
2018-03-24T06:49:22.315Z,13.70
2018-03-24T06:51:48.661Z,12.30
2018-03-24T06:54:15.010Z,13.23
2018-03-24T06:56:41.390Z,14.70
2018-03-24T06:59:07.761Z,18.80
2018-03-24T07:01:34.129Z,13.17
2018-03-24T07:04:03.854Z,25.00
2018-03-24T07:06:30.438Z,15.93
2018-03-24T07:08:56.820Z,17.00
2018-03-24T07:11:23.198Z,17.63
2018-03-24T07:13:49.994Z,14.33
2018-03-24T07:16:16.483Z,12.57
2018-03-24T07:18:42.858Z,11.87
2018-03-24T07:21:09.242Z,16.83
2018-03-24T07:23:35.613Z,9.97
2018-03-24T07:26:02.158Z,9.87
2018-03-24T07:28:28.610Z,15.03
2018-03-24T07:30:55.013Z,23.30
2018-03-24T07:33:21.356Z,26.07
2018-03-24T07:35:47.718Z,28.80
2018-03-24T07:38:14.189Z,27.73
2018-03-24T07:40:40.589Z,15.93
2018-03-24T07:43:06.970Z,23.10
2018-03-24T07:45:33.355Z,24.70
2018-03-24T07:47:59.848Z,25.13
2018-03-24T07:50:26.263Z,30.30
2018-03-24T07:52:52.969Z,25.57
2018-03-24T07:55:21.692Z,28.27
2018-03-24T07:57:52.354Z,28.30
2018-03-24T08:00:20.619Z,26.50
2018-03-24T08:02:46.989Z,31.23
2018-03-24T08:05:13.460Z,30.37
2018-03-24T08:07:39.898Z,32.30
2018-03-24T08:10:06.298Z,33.57
2018-03-24T08:12:32.682Z,29.37
2018-03-24T08:14:59.132Z,20.43
2018-03-24T08:17:25.503Z,17.93
2018-03-24T08:19:51.849Z,15.90
2018-03-24T08:22:18.210Z,16.77
2018-03-24T08:24:44.570Z,15.17
2018-03-24T08:27:10.926Z,19.40
2018-03-24T08:29:37.254Z,16.23
2018-03-24T08:32:03.761Z,16.20
2018-03-24T08:34:30.226Z,12.90
2018-03-24T08:36:56.567Z,11.40
2018-03-24T08:39:22.978Z,10.60
2018-03-24T08:41:49.322Z,11.83
2018-03-24T08:44:15.672Z,14.20
2018-03-24T08:46:42.022Z,17.47
2018-03-24T08:49:08.353Z,14.33
2018-03-24T08:51:34.689Z,15.40
2018-03-24T08:54:01.045Z,21.43
2018-03-24T08:56:27.397Z,26.63
2018-03-24T08:58:53.825Z,37.57
2018-03-24T09:01:20.238Z,38.63
2018-03-24T09:03:46.654Z,34.07
2018-03-24T09:06:13.009Z,35.13
2018-03-24T09:08:39.409Z,32.03
2018-03-24T09:11:05.746Z,33.57
2018-03-24T09:13:32.121Z,37.93
2018-03-24T09:15:58.453Z,38.00
2018-03-24T09:18:24.794Z,27.17
2018-03-24T09:20:51.175Z,19.40
2018-03-24T09:23:17.571Z,15.97
2018-03-24T09:25:43.914Z,19.70
2018-03-24T09:28:10.302Z,15.87
2018-03-24T09:30:36.740Z,20.23
2018-03-24T09:33:03.098Z,11.87
2018-03-24T09:35:29.474Z,14.23
2018-03-24T09:37:55.819Z,14.57
2018-03-24T09:40:22.158Z,13.47
2018-03-24T09:42:48.514Z,12.50
2018-03-24T09:45:14.907Z,13.40
2018-03-24T09:47:41.242Z,26.80
2018-03-24T09:50:07.633Z,20.17
2018-03-24T09:52:33.982Z,24.50
2018-03-24T09:55:00.335Z,17.20
2018-03-24T09:57:26.703Z,13.37
2018-03-24T09:59:53.108Z,21.40
2018-03-24T10:02:19.490Z,18.07
2018-03-24T10:04:45.872Z,19.63
2018-03-24T10:07:12.298Z,13.37
2018-03-24T10:09:38.638Z,13.87
2018-03-24T10:12:05.146Z,14.57
2018-03-24T10:14:31.558Z,8.30
2018-03-24T10:16:57.918Z,7.73
2018-03-24T10:19:24.306Z,8.53
2018-03-24T10:35:10.189Z,7.27
2018-03-24T10:37:42.486Z,10.00
2018-03-24T10:40:08.842Z,7.50
2018-03-24T10:42:35.254Z,7.73
2018-03-24T10:45:01.598Z,6.90
2018-03-24T10:47:27.941Z,5.67
2018-03-24T10:49:54.341Z,6.63
2018-03-24T10:52:20.841Z,6.87
2018-03-24T10:54:47.234Z,16.63
2018-03-24T10:57:13.667Z,12.77
2018-03-24T10:59:40.077Z,14.97
2018-03-24T11:02:06.510Z,13.73
2018-03-24T11:04:32.907Z,15.93
2018-03-24T11:06:59.254Z,9.07
2018-03-24T11:09:25.635Z,12.87
2018-03-24T11:11:52.049Z,13.17
2018-03-24T11:14:18.398Z,13.27
2018-03-24T11:16:44.768Z,13.97
2018-03-24T11:19:11.182Z,13.80
2018-03-24T11:21:37.514Z,9.43
2018-03-24T11:24:03.902Z,13.53
2018-03-24T11:26:30.316Z,14.60
2018-03-24T11:28:56.865Z,8.97
2018-03-24T11:31:23.234Z,8.83
2018-03-24T11:33:49.654Z,8.03
2018-03-24T11:36:15.985Z,14.90
2018-03-24T11:38:42.326Z,12.20
2018-03-24T11:41:08.725Z,10.80
2018-03-24T11:43:35.058Z,13.07
2018-03-24T11:46:01.429Z,10.07
2018-03-24T11:48:27.798Z,9.23
2018-03-24T11:50:54.148Z,6.60
2018-03-24T11:53:20.653Z,7.20
2018-03-24T11:55:46.938Z,7.77
2018-03-24T11:58:13.326Z,8.00
2018-03-24T12:00:39.726Z,5.73
2018-03-24T12:03:06.061Z,10.83
2018-03-24T12:05:32.402Z,11.00
2018-03-24T12:07:58.778Z,11.57
2018-03-24T12:10:25.134Z,7.47
2018-03-24T12:12:51.481Z,11.40
2018-03-24T12:15:17.872Z,11.33
2018-03-24T12:17:44.325Z,12.23
2018-03-24T12:20:10.645Z,8.07
2018-03-24T12:22:37.030Z,8.97
2018-03-24T12:25:03.430Z,10.90
2018-03-24T12:27:29.786Z,7.93
2018-03-24T12:29:56.186Z,5.37
2018-03-24T12:32:22.557Z,5.70
2018-03-24T12:34:48.950Z,5.90
2018-03-24T12:37:15.334Z,5.30
2018-03-24T12:39:41.701Z,5.73
2018-03-24T12:42:08.084Z,5.23
2018-03-24T12:44:34.510Z,8.10
2018-03-24T12:47:00.863Z,9.00
2018-03-24T12:49:27.299Z,6.30
2018-03-24T12:51:53.757Z,6.23
2018-03-24T12:54:20.129Z,6.67
2018-03-24T12:56:46.501Z,6.03
2018-03-24T12:59:12.933Z,5.53
2018-03-24T13:01:39.308Z,5.40
2018-03-24T13:04:05.671Z,6.60
2018-03-24T13:06:32.079Z,12.60
2018-03-24T13:08:58.442Z,9.70
2018-03-24T13:11:24.799Z,7.33
2018-03-24T13:13:51.186Z,6.90
2018-03-24T13:16:17.586Z,7.00
2018-03-24T13:18:43.984Z,9.00
2018-03-24T13:21:10.373Z,7.93
2018-03-24T13:23:36.697Z,8.93
2018-03-24T13:26:03.080Z,8.80
2018-03-24T13:28:29.477Z,6.67
2018-03-24T13:30:56.098Z,7.07
2018-03-24T13:33:22.466Z,7.00
2018-03-24T13:35:48.820Z,7.00
2018-03-24T13:38:15.233Z,6.77
2018-03-24T13:40:41.686Z,6.60
2018-03-24T13:43:08.034Z,8.20
2018-03-24T13:45:34.386Z,7.30
2018-03-24T13:48:00.831Z,7.70
2018-03-24T13:50:27.330Z,10.30
2018-03-24T13:52:53.666Z,7.77
2018-03-24T13:55:20.028Z,8.33
2018-03-24T13:57:46.386Z,10.40
2018-03-24T14:00:12.791Z,9.87
2018-03-24T14:02:39.138Z,10.10
2018-03-24T14:05:05.554Z,9.03
2018-03-24T14:07:31.891Z,9.60
2018-03-24T14:09:58.236Z,9.70
2018-03-24T14:12:24.618Z,11.40
2018-03-24T14:14:51.019Z,9.13
2018-03-24T14:17:17.430Z,9.70
2018-03-24T14:19:43.835Z,11.67
2018-03-24T14:22:10.230Z,11.53
2018-03-24T14:24:36.624Z,10.30
2018-03-24T14:27:03.035Z,9.90
2018-03-24T14:29:29.365Z,8.33
2018-03-24T14:31:55.877Z,8.73
2018-03-24T14:34:22.234Z,8.97
2018-03-24T14:36:48.623Z,10.63
2018-03-24T14:39:14.998Z,10.87
2018-03-24T14:41:41.405Z,11.17
2018-03-24T14:44:07.846Z,10.50
2018-03-24T14:46:34.253Z,10.10
2018-03-24T14:49:00.592Z,9.70
2018-03-24T14:51:27.266Z,8.30
2018-03-24T14:53:53.663Z,10.80
2018-03-24T14:56:20.235Z,12.43
2018-03-24T14:58:46.722Z,8.40
2018-03-24T15:01:13.134Z,8.90
2018-03-24T15:03:39.491Z,7.67
2018-03-24T15:06:05.859Z,6.17
2018-03-24T15:08:32.205Z,6.50
2018-03-24T15:10:58.565Z,8.43
2018-03-24T15:13:25.014Z,9.30
2018-03-24T15:15:51.551Z,8.30
2018-03-24T15:18:17.905Z,7.80
2018-03-24T15:20:44.254Z,9.93
2018-03-24T15:23:11.088Z,14.10
2018-03-24T15:25:37.581Z,9.73
2018-03-24T15:28:03.969Z,18.47
2018-03-24T15:43:54.045Z,9.27
2018-03-24T15:46:20.386Z,8.00
2018-03-24T15:48:46.726Z,6.67
2018-03-24T15:51:13.101Z,7.67
2018-03-24T15:53:39.482Z,11.83
2018-03-24T15:56:05.938Z,11.10
2018-03-24T15:58:32.322Z,11.47
2018-03-24T16:00:58.662Z,10.17
2018-03-24T16:03:25.058Z,11.30
2018-03-24T16:05:51.426Z,27.87
2018-03-24T16:08:17.794Z,13.73
2018-03-24T16:10:44.254Z,10.80
2018-03-24T16:13:10.605Z,15.43
2018-03-24T16:15:36.973Z,20.40
2018-03-24T16:18:03.432Z,23.13
2018-03-24T16:20:29.782Z,22.87
2018-03-24T16:22:56.133Z,18.10
2018-03-24T16:25:22.535Z,13.60
2018-03-24T16:27:48.897Z,16.57
2018-03-24T16:30:15.335Z,13.57
2018-03-24T16:32:41.891Z,12.70
2018-03-24T16:35:08.215Z,11.60
2018-03-24T16:37:34.586Z,9.63
2018-03-24T16:40:00.922Z,11.63
2018-03-24T16:42:27.501Z,25.57
2018-03-24T16:44:53.956Z,20.30
2018-03-24T16:47:20.311Z,9.77
2018-03-24T16:49:46.654Z,11.30
2018-03-24T16:52:13.028Z,11.03
2018-03-24T16:54:39.383Z,12.80
2018-03-24T16:57:05.747Z,11.97
2018-03-24T16:59:32.138Z,14.70
2018-03-24T17:01:58.508Z,13.87
2018-03-24T17:04:24.886Z,13.77
2018-03-24T17:06:51.295Z,14.77
2018-03-24T17:09:17.699Z,15.67
2018-03-24T17:11:44.105Z,18.33
2018-03-24T17:14:10.415Z,18.07
2018-03-24T17:16:36.810Z,16.03
2018-03-24T17:19:03.186Z,17.13
2018-03-24T17:21:29.531Z,13.47
2018-03-24T17:23:55.893Z,11.27
2018-03-24T17:26:22.258Z,18.03
2018-03-24T17:28:48.677Z,15.37
2018-03-24T17:31:15.183Z,16.77
2018-03-24T17:33:41.733Z,22.87
2018-03-24T17:36:08.150Z,27.30
2018-03-24T17:38:34.494Z,30.43
2018-03-24T17:41:00.855Z,42.80
2018-03-24T17:43:27.246Z,41.93
2018-03-24T17:45:53.636Z,41.83
2018-03-24T17:48:20.005Z,42.00
2018-03-24T17:50:46.566Z,36.63
2018-03-24T17:53:12.934Z,33.60
2018-03-24T17:55:39.325Z,34.27
2018-03-24T17:58:05.698Z,41.63
2018-03-24T18:00:32.068Z,42.20
2018-03-24T18:02:58.402Z,44.27
2018-03-24T18:05:24.770Z,42.07
2018-03-24T18:07:51.126Z,36.53
2018-03-24T18:10:17.518Z,36.73
2018-03-24T18:12:43.849Z,37.07
2018-03-24T18:15:10.192Z,31.83
2018-03-24T18:17:36.677Z,33.17
2018-03-24T18:20:03.065Z,24.40
2018-03-24T18:22:29.417Z,24.47
2018-03-24T18:24:55.749Z,22.90
2018-03-24T18:27:22.101Z,23.53
2018-03-24T18:29:48.473Z,21.17
2018-03-24T18:32:14.868Z,18.90
2018-03-24T18:34:41.237Z,20.73
2018-03-24T18:37:07.688Z,25.90
2018-03-24T18:39:34.038Z,20.93
2018-03-24T18:42:00.434Z,22.07
2018-03-24T18:44:26.774Z,26.63
2018-03-24T18:46:53.180Z,23.73
2018-03-24T18:49:19.534Z,25.80
2018-03-24T18:51:45.876Z,31.77
2018-03-24T18:54:12.234Z,27.43
2018-03-24T18:56:38.618Z,30.50
2018-03-24T18:59:04.970Z,27.50
2018-03-24T19:01:31.634Z,22.90
2018-03-24T19:03:57.998Z,23.43
2018-03-24T19:06:24.329Z,26.07
2018-03-24T19:08:50.685Z,22.43
2018-03-24T19:11:17.009Z,22.40
2018-03-24T19:13:43.350Z,28.90
2018-03-24T19:16:09.708Z,25.20
2018-03-24T19:18:36.357Z,29.77
2018-03-24T19:21:02.760Z,31.77
2018-03-24T19:23:29.114Z,31.00
2018-03-24T19:25:55.507Z,27.50
2018-03-24T19:28:21.834Z,27.43
2018-03-24T19:30:48.219Z,29.13
2018-03-24T19:33:14.580Z,31.30
2018-03-24T19:35:41.083Z,30.77
2018-03-24T19:38:07.439Z,31.73
2018-03-24T19:40:33.778Z,29.87
2018-03-24T19:43:00.191Z,20.63
2018-03-24T19:45:26.494Z,14.90
2018-03-24T19:47:52.862Z,15.20
2018-03-24T19:50:19.354Z,15.57
2018-03-24T19:52:45.709Z,19.87
2018-03-24T19:55:12.049Z,20.70
2018-03-24T19:57:38.462Z,21.23
2018-03-24T20:00:04.822Z,20.63
2018-03-24T20:02:31.167Z,19.73
2018-03-24T20:04:57.530Z,19.07
2018-03-24T20:07:24.099Z,20.97
2018-03-24T20:09:50.442Z,22.13
2018-03-24T20:12:16.773Z,23.57
2018-03-24T20:14:43.117Z,19.93
2018-03-24T20:17:09.505Z,21.00
2018-03-24T20:19:35.983Z,22.73
2018-03-24T20:22:02.355Z,23.67
2018-03-24T20:24:28.702Z,26.77
2018-03-24T20:26:55.114Z,25.80
2018-03-24T20:29:21.453Z,25.77
2018-03-24T20:31:47.806Z,21.77
2018-03-24T20:34:14.184Z,22.33
2018-03-24T20:36:40.550Z,20.20
2018-03-24T20:39:06.940Z,19.73
2018-03-24T20:41:33.288Z,18.40
2018-03-24T20:43:59.633Z,17.70
2018-03-24T20:46:25.990Z,17.33
2018-03-24T20:48:52.341Z,18.17
2018-03-24T20:51:18.708Z,19.13
2018-03-24T20:53:45.066Z,20.07
2018-03-24T20:56:11.394Z,18.60
2018-03-24T20:58:37.745Z,19.77
2018-03-24T21:01:04.114Z,19.00
2018-03-24T21:03:30.449Z,21.53
2018-03-24T21:05:56.788Z,22.67
2018-03-24T21:08:23.150Z,21.23
2018-03-24T21:10:49.486Z,23.63
2018-03-24T21:13:15.877Z,23.20
2018-03-24T21:15:42.186Z,24.30
2018-03-24T21:18:08.549Z,23.30
2018-03-24T21:20:34.913Z,25.33
2018-03-24T21:23:01.254Z,24.47
2018-03-24T21:25:27.610Z,23.40
2018-03-24T21:27:54.086Z,21.90
2018-03-24T21:30:20.426Z,21.13
2018-03-24T21:32:46.814Z,21.50
2018-03-24T21:35:13.161Z,19.13
2018-03-24T21:37:39.515Z,19.43
2018-03-24T21:40:05.878Z,20.17
2018-03-24T21:42:32.208Z,22.20
2018-03-24T21:44:58.547Z,21.53
2018-03-24T21:47:24.916Z,19.70
2018-03-24T21:49:51.248Z,21.00
2018-03-24T21:52:18.011Z,21.00
2018-03-24T21:54:44.358Z,18.47
2018-03-24T21:57:10.691Z,18.40
2018-03-24T21:59:37.039Z,17.83
2018-03-24T22:02:03.422Z,17.83
2018-03-24T22:04:29.806Z,16.33
2018-03-24T22:06:56.154Z,16.67
2018-03-24T22:09:22.485Z,17.70
2018-03-24T22:11:48.839Z,18.33
2018-03-24T22:14:15.182Z,18.20
2018-03-24T22:16:41.534Z,16.20
2018-03-24T22:19:07.914Z,15.90
2018-03-24T22:21:34.337Z,16.20
2018-03-24T22:24:00.674Z,16.60
2018-03-24T22:26:27.010Z,17.03
2018-03-24T22:28:53.344Z,16.53
2018-03-24T22:31:19.706Z,17.33
2018-03-24T22:33:46.058Z,20.20
2018-03-24T22:36:12.478Z,17.23
2018-03-24T22:38:38.826Z,18.03
2018-03-24T22:41:05.225Z,17.67
2018-03-24T22:43:31.755Z,17.83
2018-03-24T22:45:58.113Z,15.90
2018-03-24T22:48:24.458Z,16.80
2018-03-24T22:50:50.784Z,17.77
2018-03-24T22:53:17.305Z,17.10
2018-03-24T22:55:43.654Z,16.67
2018-03-24T22:58:10.151Z,17.77
2018-03-24T23:00:36.641Z,17.97
2018-03-24T23:03:03.022Z,19.93
2018-03-24T23:05:29.552Z,18.30
2018-03-24T23:07:55.900Z,15.83
2018-03-24T23:10:22.241Z,16.53
2018-03-24T23:12:48.593Z,17.37
2018-03-24T23:15:14.930Z,16.57
2018-03-24T23:17:41.594Z,19.53
2018-03-24T23:20:07.958Z,16.80
2018-03-24T23:22:34.365Z,18.03
2018-03-24T23:25:00.749Z,16.43
2018-03-24T23:27:27.084Z,17.50
2018-03-24T23:29:53.611Z,17.03
2018-03-24T23:32:19.961Z,18.00
2018-03-24T23:34:46.318Z,18.03
2018-03-24T23:37:12.661Z,16.83
2018-03-24T23:39:39.025Z,17.37
2018-03-24T23:42:05.414Z,18.17
2018-03-24T23:44:31.789Z,19.63
2018-03-24T23:46:58.129Z,20.80
2018-03-24T23:49:24.465Z,23.20
2018-03-24T23:51:50.793Z,24.63
2018-03-24T23:54:17.131Z,24.10
2018-03-24T23:56:43.453Z,22.93
2018-03-24T23:59:09.806Z,21.67
